Time;durP1;ratioP1;P1;durP2;ratioP2;P2;SDS_P1;SDS_P2;PMS_P1;PMS_P2;Temp;Humidity;BMP_temperature;BMP_pressure;BME280_temperature;BME280_humidity;BME280_pressure;Samples;Min_cycle;Max_cycle;Signal;HPM_P1;HPM_P2
2022/10/14 00:00:41;;;;;;;12.65;5.18;;;;;;;7.69;60.42;100793.72;4995047;28;20072;-78
2022/10/14 00:03:08;;;;;;;12.18;5.50;;;;;;;7.88;60.50;100823.44;4996129;28;20433;-79
2022/10/14 00:05:38;;;;;;;15.75;5.00;;;;;;;7.91;60.48;100823.50;4996522;28;20100;-78
2022/10/14 00:08:04;;;;;;;12.98;5.25;;;;;;;7.83;60.57;100810.38;4995318;28;20052;-77
2022/10/14 00:10:30;;;;;;;14.90;5.78;;;;;;;7.89;60.54;100814.84;4996360;28;20038;-78
2022/10/14 00:12:56;;;;;;;13.23;5.53;;;;;;;7.83;60.48;100804.34;4980351;28;20081;-78
2022/10/14 00:15:22;;;;;;;10.73;5.55;;;;;;;7.99;60.65;100827.09;4979099;28;20042;-80
2022/10/14 00:17:48;;;;;;;16.23;5.47;;;;;;;8.01;60.25;100827.16;5012719;28;20046;-81
2022/10/14 00:20:14;;;;;;;12.35;5.63;;;;;;;7.90;60.66;100810.50;5001658;28;20556;-80
2022/10/14 00:22:40;;;;;;;20.20;5.50;;;;;;;8.04;60.58;100824.59;4998636;28;20041;-78
2022/10/14 00:25:06;;;;;;;10.50;5.25;;;;;;;8.01;60.63;100814.19;4983662;28;20045;-78
2022/10/14 00:27:32;;;;;;;11.48;5.25;;;;;;;8.08;60.63;100831.56;4999326;28;20070;-79
2022/10/14 00:30:00;;;;;;;16.58;5.85;;;;;;;7.98;60.39;100798.56;4995078;28;20061;-78
2022/10/14 00:32:29;;;;;;;14.75;5.25;;;;;;;8.11;60.60;100815.22;4978495;28;20049;-78
2022/10/14 00:34:55;;;;;;;11.43;5.43;;;;;;;8.09;60.58;100816.91;4995421;28;20046;-78
2022/10/14 00:37:21;;;;;;;12.00;5.25;;;;;;;8.12;60.34;100823.00;4978202;28;20054;-78
2022/10/14 00:39:47;;;;;;;13.57;4.90;;;;;;;7.99;60.52;100800.31;4978500;28;20038;-78
2022/10/14 00:42:15;;;;;;;10.52;5.03;;;;;;;8.13;60.53;100818.72;4994494;28;20038;-79
2022/10/14 00:44:44;;;;;;;12.20;5.10;;;;;;;8.17;60.63;100819.63;4995440;28;20510;-78
2022/10/14 00:47:10;;;;;;;11.93;5.60;;;;;;;8.21;60.48;100811.06;4995237;28;20493;-78
2022/10/14 00:49:41;;;;;;;11.63;5.00;;;;;;;8.26;60.53;100812.03;4978992;28;20150;-78
2022/10/14 00:52:15;;;;;;;8.82;4.88;;;;;;;8.26;60.20;100814.63;4983612;28;20128;-77
2022/10/14 00:54:52;;;;;;;9.82;5.30;;;;;;;8.27;60.31;100808.59;4970092;28;20046;-78
2022/10/14 00:57:19;;;;;;;11.68;5.40;;;;;;;8.00;60.43;100794.28;4978667;28;20145;-77
2022/10/14 00:59:45;;;;;;;11.70;5.00;;;;;;;8.08;60.38;100794.41;4994673;28;20053;-78
2022/10/14 01:02:11;;;;;;;9.63;5.50;;;;;;;8.26;60.47;100817.19;4978422;28;20406;-78
2022/10/14 01:04:40;;;;;;;14.77;5.70;;;;;;;8.31;60.29;100815.53;4993878;28;20052;-79
2022/10/14 01:07:35;;;;;;;9.55;5.00;;;;;;;8.33;60.22;100824.22;4984126;28;20034;-77
2022/10/14 01:10:06;;;;;;;9.77;5.10;;;;;;;8.36;59.90;100819.09;4981794;28;20522;-79
2022/10/14 01:12:32;;;;;;;8.10;4.65;;;;;;;8.38;59.60;100820.00;4992527;28;20054;-78
2022/10/14 01:15:28;;;;;;;13.95;5.47;;;;;;;8.32;60.01;100803.47;4994213;28;20501;-78
2022/10/14 01:18:13;;;;;;;9.70;5.10;;;;;;;8.38;59.82;100813.94;4967567;28;20148;-78
2022/10/14 01:20:40;;;;;;;9.10;5.05;;;;;;;8.40;59.57;100820.00;4976823;28;20056;-77
2022/10/14 01:23:38;;;;;;;8.98;4.85;;;;;;;8.38;59.59;100824.31;4982275;28;20512;-78
2022/10/14 01:26:29;;;;;;;7.95;4.43;;;;;;;8.42;59.83;100814.00;4994680;28;20053;-78
2022/10/14 01:28:58;;;;;;;8.73;4.55;;;;;;;8.42;59.71;100815.72;5001287;28;20037;-78
2022/10/14 01:31:30;;;;;;;9.32;4.95;;;;;;;8.31;59.39;100806.91;5015096;28;20053;-79
2022/10/14 01:34:00;;;;;;;9.38;5.20;;;;;;;8.34;59.54;100817.31;5011805;28;20127;-79
2022/10/14 01:36:35;;;;;;;8.73;4.82;;;;;;;8.34;59.36;100817.31;4954703;28;20188;-78
2022/10/14 01:39:22;;;;;;;8.18;4.70;;;;;;;8.35;59.50;100819.06;4994154;28;20041;-79
2022/10/14 01:42:07;;;;;;;10.10;5.60;;;;;;;8.11;59.38;100778.91;4962365;28;20033;-76
2022/10/14 01:44:36;;;;;;;9.13;5.32;;;;;;;8.08;59.28;100768.50;4995547;28;20533;-79
2022/10/14 01:47:04;;;;;;;7.55;5.03;;;;;;;8.22;59.39;100794.66;4978089;28;20040;-78
2022/10/14 01:49:42;;;;;;;10.00;5.20;;;;;;;8.28;59.11;100799.91;4986863;28;20053;-78
2022/10/14 01:52:21;;;;;;;9.88;5.20;;;;;;;8.33;59.27;100806.06;5010356;28;20046;-78
2022/10/14 01:54:51;;;;;;;9.23;6.25;;;;;;;8.31;59.28;100804.31;4981347;28;20069;-79
2022/10/14 01:57:24;;;;;;;10.20;5.50;;;;;;;8.28;59.12;100799.91;4977403;28;20037;-78
2022/10/14 01:59:53;;;;;;;8.57;5.07;;;;;;;8.40;59.14;100822.59;4983838;28;20046;-77
2022/10/14 02:02:23;;;;;;;8.63;5.63;;;;;;;8.33;59.20;100811.25;4977425;28;20116;-78
2022/10/14 02:04:49;;;;;;;8.35;5.13;;;;;;;8.27;59.48;100799.06;4994337;28;20042;-77
2022/10/14 02:07:25;;;;;;;8.40;5.32;;;;;;;8.33;59.32;100813.00;4960951;28;20037;-77
2022/10/14 02:10:09;;;;;;;10.30;5.60;;;;;;;8.33;59.21;100815.59;4967821;28;20061;-77
2022/10/14 02:12:37;;;;;;;10.25;5.97;;;;;;;8.33;59.38;100815.59;4994384;28;20132;-77
2022/10/14 02:15:11;;;;;;;10.80;5.57;;;;;;;8.34;59.29;100815.59;4977495;28;20502;-77
2022/10/14 02:17:54;;;;;;;10.32;6.03;;;;;;;8.26;59.50;100796.47;4994404;28;20375;-79
2022/10/14 02:20:23;;;;;;;10.52;6.07;;;;;;;8.38;59.25;100814.81;4968620;28;20141;-79
2022/10/14 02:23:14;;;;;;;11.00;6.05;;;;;;;8.40;59.36;100818.28;4996657;28;20060;-78
2022/10/14 02:25:43;;;;;;;;;;;;;;;8.40;59.20;100809.63;4997786;28;20077;-78
2022/10/14 02:28:17;;;;;;;11.00;6.10;;;;;;;8.32;59.25;100793.09;4965277;28;20448;-77
2022/10/14 02:30:53;;;;;;;10.27;5.57;;;;;;;8.35;59.04;100796.59;4981807;28;20504;-78
2022/10/14 02:33:22;;;;;;;10.05;6.40;;;;;;;8.33;58.96;100797.44;4998380;28;20071;-78
2022/10/14 02:35:50;;;;;;;12.65;6.35;;;;;;;8.37;59.02;100805.28;4986666;28;20251;-77
2022/10/14 02:38:17;;;;;;;10.93;6.32;;;;;;;8.46;59.21;100809.72;4980482;28;20100;-79
2022/10/14 02:40:47;;;;;;;13.85;6.45;;;;;;;8.40;58.97;100805.31;4980321;28;20156;-80
2022/10/14 02:43:13;;;;;;;11.43;6.88;;;;;;;8.46;59.25;100812.31;4997959;28;20042;-77
2022/10/14 02:45:41;;;;;;;16.85;7.22;;;;;;;8.37;59.08;100802.69;4984235;28;20050;-79
2022/10/14 02:48:08;;;;;;;13.52;7.38;;;;;;;8.36;58.90;100813.03;4971618;28;20050;-80
2022/10/14 02:50:36;;;;;;;12.25;6.57;;;;;;;8.20;58.89;100796.34;4973479;28;20058;-80
2022/10/14 02:53:03;;;;;;;14.77;7.55;;;;;;;8.24;59.12;100804.19;4980485;28;20046;-78
2022/10/14 02:55:29;;;;;;;18.90;7.18;;;;;;;8.03;59.15;100763.25;4995953;28;20042;-78
2022/10/14 02:57:55;;;;;;;16.50;7.57;;;;;;;8.25;58.95;100800.75;4997080;28;20105;-76
2022/10/14 03:00:22;;;;;;;15.93;7.03;;;;;;;8.09;58.96;100785.81;4966758;28;20046;-78
2022/10/14 03:02:48;;;;;;;19.80;7.97;;;;;;;8.10;59.11;100803.09;4998623;28;20038;-79
2022/10/14 03:05:17;;;;;;;20.70;7.75;;;;;;;7.99;58.95;100801.19;4999210;28;20092;-79
2022/10/14 03:07:43;;;;;;;21.27;7.07;;;;;;;7.97;59.19;100815.81;4965737;28;20095;-78
2022/10/14 03:10:11;;;;;;;21.67;7.72;;;;;;;7.90;59.40;100820.88;4999577;28;20069;-79
2022/10/14 03:12:38;;;;;;;21.50;8.20;;;;;;;7.75;59.49;100809.38;4995781;28;20048;-79
2022/10/14 03:15:11;;;;;;;16.90;7.63;;;;;;;7.69;59.70;100811.84;4980145;28;20397;-79
2022/10/14 03:17:38;;;;;;;20.65;7.32;;;;;;;7.68;59.68;100821.34;4980536;28;20048;-79
2022/10/14 03:20:06;;;;;;;16.17;7.63;;;;;;;7.52;59.88;100804.63;5004258;28;20038;-79
2022/10/14 03:22:40;;;;;;;15.20;7.20;;;;;;;7.44;59.82;100810.50;5013326;28;20112;-80
2022/10/14 03:25:07;;;;;;;17.00;8.15;;;;;;;7.47;60.03;100811.44;5005230;28;20045;-79
2022/10/14 03:27:55;;;;;;;18.20;7.30;;;;;;;7.34;60.30;100793.91;4978217;28;20046;-78
2022/10/14 03:30:31;;;;;;;17.80;8.07;;;;;;;7.35;60.49;100795.66;4996977;28;20037;-78
2022/10/14 03:33:03;;;;;;;10.98;6.70;;;;;;;7.37;60.49;100814.69;4995500;28;20049;-78
2022/10/14 03:35:52;;;;;;;15.13;7.82;;;;;;;7.15;60.33;100793.53;5010671;28;20514;-79
2022/10/14 03:38:24;;;;;;;12.95;6.90;;;;;;;7.08;60.51;100776.97;4979913;28;20038;-80
2022/10/14 03:40:51;;;;;;;17.15;7.00;;;;;;;7.16;60.56;100792.72;4995386;28;20046;-79
2022/10/14 03:43:18;;;;;;;24.13;7.72;;;;;;;7.14;60.56;100807.31;5008120;28;20038;-79
2022/10/14 03:45:53;;;;;;;18.45;6.80;;;;;;;7.13;60.44;100802.09;4997835;28;20049;-77
2022/10/14 03:48:22;;;;;;;15.25;6.32;;;;;;;7.11;60.91;100817.63;4994698;28;20042;-79
2022/10/14 03:50:49;;;;;;;13.57;6.95;;;;;;;7.03;61.18;100814.88;4964009;28;20569;-77
2022/10/14 03:53:17;;;;;;;15.93;6.28;;;;;;;6.97;60.97;100814.72;4995797;28;20037;-77
2022/10/14 03:55:43;;;;;;;13.95;6.53;;;;;;;6.91;60.74;100806.81;4979164;28;20046;-80
2022/10/14 03:58:11;;;;;;;13.35;6.03;;;;;;;6.87;61.28;100805.88;4983798;28;20046;-79
2022/10/14 04:00:44;;;;;;;15.40;6.97;;;;;;;6.70;61.03;100784.78;5002356;28;20560;-79
2022/10/14 04:03:22;;;;;;;11.70;7.00;;;;;;;6.73;60.90;100799.53;4985995;28;20049;-77
2022/10/14 04:05:48;;;;;;;17.25;6.57;;;;;;;6.70;61.68;100809.81;4971419;28;20038;-79
2022/10/14 04:08:18;;;;;;;13.75;6.85;;;;;;;6.66;61.62;100805.38;4982364;28;20048;-77
2022/10/14 04:10:55;;;;;;;16.50;6.88;;;;;;;6.61;61.94;100813.91;4980573;28;20524;-78
2022/10/14 04:13:22;;;;;;;13.35;6.78;;;;;;;6.52;61.57;100813.69;4980619;28;20048;-79
2022/10/14 04:15:48;;;;;;;14.95;7.32;;;;;;;6.45;61.93;100816.97;4981692;28;20073;-77
2022/10/14 04:18:29;;;;;;;14.02;6.45;;;;;;;6.16;61.74;100786.09;4981364;28;20115;-79
2022/10/14 04:21:02;;;;;;;17.35;6.70;;;;;;;6.19;61.85;100812.03;4980602;28;20091;-77
2022/10/14 04:23:29;;;;;;;10.82;6.50;;;;;;;5.83;61.91;100769.75;4999945;28;20564;-80
2022/10/14 04:26:02;;;;;;;;;;;;;;;6.05;62.33;100813.41;4979602;28;20129;-78
2022/10/14 04:28:29;;;;;;;15.50;6.38;;;;;;;5.75;62.31;100783.28;4979043;28;19928;-79
2022/10/14 04:31:05;;;;;;;12.55;6.93;;;;;;;5.60;62.56;100779.47;4980537;28;20056;-78
2022/10/14 04:33:43;;;;;;;16.55;7.15;;;;;;;5.67;62.57;100808.94;4978936;28;20494;-79
2022/10/14 04:36:17;;;;;;;14.75;8.50;;;;;;;5.68;62.57;100821.88;4968342;28;20488;-78
2022/10/14 04:38:43;;;;;;;17.17;9.65;;;;;;;5.64;62.68;100817.44;4963052;28;20405;-77
2022/10/14 04:41:10;;;;;;;16.38;9.25;;;;;;;5.49;63.10;100801.53;4984249;28;20124;-77
2022/10/14 04:43:41;;;;;;;22.88;9.23;;;;;;;5.49;62.77;100807.59;4983811;28;20093;-79
2022/10/14 04:46:23;;;;;;;16.38;8.13;;;;;;;5.58;63.03;100827.63;5014769;28;20048;-79
2022/10/14 04:48:50;;;;;;;14.82;8.23;;;;;;;5.39;63.22;100796.13;4997156;28;20046;-78
2022/10/14 04:51:18;;;;;;;19.35;8.07;;;;;;;5.39;63.60;100796.13;4995357;28;20047;-78
2022/10/14 04:54:01;;;;;;;18.02;7.22;;;;;;;5.51;63.49;100825.69;4994673;28;20046;-80
2022/10/14 04:56:48;;;;;;;14.25;7.38;;;;;;;5.37;63.21;100807.22;4996597;28;20049;-79
2022/10/14 04:59:14;;;;;;;15.57;6.68;;;;;;;5.30;63.32;100800.16;4969566;28;20038;-80
2022/10/14 05:01:59;;;;;;;13.63;7.55;;;;;;;5.42;63.80;100824.59;4993696;28;20129;-78
2022/10/14 05:04:34;;;;;;;15.88;8.15;;;;;;;5.44;64.10;100829.81;4977292;28;20042;-79
2022/10/14 05:07:00;;;;;;;15.73;7.43;;;;;;;5.42;63.58;100824.59;4995889;28;20046;-78
2022/10/14 05:09:27;;;;;;;15.30;7.80;;;;;;;5.79;64.00;100819.56;4996058;28;20046;-79
2022/10/14 05:11:53;;;;;;;13.73;6.65;;;;;;;7.61;64.26;100814.31;4993825;28;20050;-79
2022/10/14 05:14:25;;;;;;;13.10;6.65;;;;;;;9.81;63.56;100816.75;4978398;28;20051;-77
2022/10/14 05:17:03;;;;;;;11.88;6.30;;;;;;;11.80;61.08;100787.59;4967170;28;20399;-78
2022/10/14 05:19:31;;;;;;;11.43;6.38;;;;;;;13.55;57.84;100799.53;4995179;28;20042;-79
2022/10/14 05:21:57;;;;;;;11.52;6.15;;;;;;;15.11;54.95;100792.16;4997052;28;20045;-79
2022/10/14 05:24:32;;;;;;;16.42;6.55;;;;;;;16.40;51.14;100767.53;4972974;28;20501;-78
2022/10/14 05:26:58;;;;;;;13.23;6.25;;;;;;;17.54;48.36;100760.09;4982554;28;20077;-79
2022/10/14 05:29:26;;;;;;;14.43;6.13;;;;;;;18.87;46.01;100751.44;4978912;28;20046;-77
2022/10/14 05:31:53;;;;;;;12.48;6.10;;;;;;;19.96;43.17;100743.81;4980148;28;20049;-80
2022/10/14 05:34:38;;;;;;;13.55;7.07;;;;;;;21.06;40.14;100761.19;4979186;28;20038;-78
2022/10/14 05:37:07;;;;;;;10.32;6.18;;;;;;;22.00;38.08;100733.69;4979180;28;20178;-77
2022/10/14 05:39:41;;;;;;;14.93;6.03;;;;;;;23.00;36.25;100741.75;4996265;28;20034;-79
2022/10/14 05:42:07;;;;;;;8.50;6.00;;;;;;;23.92;34.72;100733.00;4983086;28;20113;-78
2022/10/14 05:44:35;;;;;;;11.02;6.93;;;;;;;24.62;32.76;100714.31;4996103;28;20100;-79
2022/10/14 05:47:03;;;;;;;20.83;7.85;;;;;;;25.57;31.76;100722.53;5012687;28;20046;-79
2022/10/14 05:49:29;;;;;;;13.70;7.00;;;;;;;26.39;29.95;100731.06;4963159;28;20042;-77
2022/10/14 05:51:57;;;;;;;13.45;7.47;;;;;;;27.12;28.46;100739.09;4995955;28;20061;-79
2022/10/14 05:54:23;;;;;;;15.00;7.38;;;;;;;27.61;27.59;100706.56;4981457;28;20498;-79
2022/10/14 05:56:51;;;;;;;10.25;6.75;;;;;;;28.02;26.87;100715.44;4983886;28;20046;-79
2022/10/14 05:59:18;;;;;;;14.02;7.30;;;;;;;28.43;26.11;100718.06;4966561;28;20033;-78
2022/10/14 06:01:44;;;;;;;11.00;7.22;;;;;;;29.07;25.07;100731.38;4997327;28;20628;-76
2022/10/14 06:04:18;;;;;;;15.32;7.28;;;;;;;29.03;24.55;100718.31;4981765;28;20093;-78
2022/10/14 06:06:45;;;;;;;15.68;7.80;;;;;;;29.69;23.82;100736.75;4999130;28;20706;-78
2022/10/14 06:09:26;;;;;;;11.98;7.40;;;;;;;30.56;23.18;100735.56;5002180;28;20038;-82
2022/10/14 06:11:52;;;;;;;12.18;7.13;;;;;;;31.43;22.15;100734.03;4983113;28;20049;-80
2022/10/14 06:14:19;;;;;;;18.42;7.10;;;;;;;32.03;21.00;100715.56;4982437;28;20493;-80
2022/10/14 06:16:57;;;;;;;12.30;6.90;;;;;;;32.34;20.34;100652.88;4986580;28;20046;-80
2022/10/14 06:19:49;;;;;;;8.00;6.30;;;;;;;32.66;19.04;100620.38;4993152;28;20050;-78
2022/10/14 06:22:39;;;;;;;12.27;6.80;;;;;;;33.39;18.29;100602.22;4976399;28;20125;-80
2022/10/14 06:25:09;;;;;;;14.73;6.68;;;;;;;34.16;18.08;100646.22;4977515;28;20439;-79
2022/10/14 06:27:39;;;;;;;8.30;6.00;;;;;;;34.90;17.83;100718.44;4980563;28;20046;-79
2022/10/14 06:30:17;;;;;;;7.72;6.63;;;;;;;34.79;16.93;100597.91;4996779;28;20073;-79
2022/10/14 06:32:47;;;;;;;10.90;6.05;;;;;;;35.53;17.04;100719.50;4998613;28;20497;-81
2022/10/14 06:35:13;;;;;;;12.60;6.57;;;;;;;35.84;16.57;100728.03;5000001;28;20042;-81
2022/10/14 06:37:39;;;;;;;9.45;6.10;;;;;;;36.30;15.66;100694.53;4998153;28;20155;-81
2022/10/14 06:40:19;;;;;;;10.20;6.15;;;;;;;36.76;15.40;100707.78;4999654;28;20046;-79
2022/10/14 06:42:45;;;;;;;13.85;5.88;;;;;;;37.33;14.93;100717.97;4953551;28;20053;-80
2022/10/14 06:45:21;;;;;;;8.98;5.80;;;;;;;37.31;14.48;100618.81;5013786;28;20049;-79
2022/10/14 06:47:50;;;;;;;9.55;5.75;;;;;;;37.88;13.91;100679.50;4974463;28;20474;-79
2022/10/14 06:50:16;;;;;;;9.05;5.22;;;;;;;37.53;13.54;100614.56;4981953;28;20529;-78
2022/10/14 06:52:47;;;;;;;7.82;5.13;;;;;;;38.19;13.64;100673.34;4996571;28;20181;-79
2022/10/14 06:55:20;;;;;;;9.38;4.78;;;;;;;37.92;13.29;100642.88;4980208;28;20421;-81
2022/10/14 07:03:59;;;;;;;5.47;4.30;;;;;;;39.66;11.80;100688.19;4982637;28;20054;-82
2022/10/14 07:06:26;;;;;;;6.55;4.10;;;;;;;39.27;11.92;100660.94;4968054;28;20492;-80
2022/10/14 07:08:55;;;;;;;8.18;4.10;;;;;;;40.02;11.31;100712.06;4978362;28;20054;-79
2022/10/14 07:11:47;;;;;;;7.55;3.90;;;;;;;39.95;10.91;100654.75;4997309;28;20045;-82
2022/10/14 07:14:42;;;;;;;6.55;3.65;;;;;;;39.21;10.93;100603.69;4969154;28;21691;-80
2022/10/14 07:17:09;;;;;;;4.88;3.78;;;;;;;39.51;10.36;100686.28;4980366;28;20045;-81
2022/10/14 07:19:53;;;;;;;4.97;3.88;;;;;;;39.82;10.42;100731.66;4995107;28;20042;-80
2022/10/14 07:22:25;;;;;;;6.40;3.60;;;;;;;39.83;10.23;100713.44;4986053;28;20545;-79
2022/10/14 07:25:38;;;;;;;5.82;3.45;;;;;;;40.05;10.04;100643.59;4986006;28;20496;-80
2022/10/14 07:28:36;;;;;;;5.53;3.63;;;;;;;40.17;9.78;100614.84;4994668;28;20409;-79
2022/10/14 07:31:25;;;;;;;6.05;3.50;;;;;;;40.99;9.40;100687.59;4998623;28;20128;-80
2022/10/14 07:34:21;;;;;;;6.70;3.60;;;;;;;41.52;9.46;100696.31;4973425;28;20080;-79
2022/10/14 07:37:21;;;;;;;;;;;;;;;;;;;;;
2022/10/14 07:40:13;;;;;;;6.85;3.92;;;;;;;41.80;8.77;100720.09;4969807;28;20054;-79
2022/10/14 07:42:46;;;;;;;5.78;3.42;;;;;;;41.43;8.74;100670.19;4995523;28;20049;-82
2022/10/14 07:48:16;;;;;;;6.95;3.20;;;;;;;40.46;9.08;100621.31;4989153;28;20149;-80
2022/10/14 07:50:49;;;;;;;4.45;2.80;;;;;;;40.35;8.38;100647.19;4998230;28;20576;-82
2022/10/14 07:53:15;;;;;;;3.72;2.10;;;;;;;40.28;8.30;100664.44;4996971;28;20371;-80
2022/10/14 07:55:51;;;;;;;2.90;2.35;;;;;;;39.92;8.52;100653.25;4978613;28;20957;-84
2022/10/14 07:58:22;;;;;;;5.45;2.97;;;;;;;39.92;8.39;100699.56;4997058;28;20040;-81
2022/10/14 08:00:58;;;;;;;5.30;3.63;;;;;;;39.65;8.55;100700.97;4980042;28;20088;-79
2022/10/14 08:03:25;;;;;;;5.55;3.53;;;;;;;40.20;8.85;100682.63;4999869;28;20514;-80
2022/10/14 08:06:01;;;;;;;7.15;3.08;;;;;;;40.99;8.10;100691.16;4986554;28;20455;-80
2022/10/14 08:08:27;;;;;;;5.63;2.80;;;;;;;40.86;8.52;100686.38;5002594;28;20042;-80
2022/10/14 08:11:02;;;;;;;4.85;3.15;;;;;;;40.24;8.52;100679.50;4981136;28;20089;-81
2022/10/14 08:13:29;;;;;;;3.53;2.85;;;;;;;40.02;8.51;100654.88;4983286;28;20062;-80
2022/10/14 08:15:56;;;;;;;3.90;3.10;;;;;;;40.61;8.17;100694.88;5000324;28;20165;-80
2022/10/14 08:18:23;;;;;;;3.83;3.33;;;;;;;39.85;8.09;100668.63;5023335;28;20043;-79
2022/10/14 08:20:58;;;;;;;4.25;3.08;;;;;;;38.61;8.91;100620.56;4983372;28;20060;-80
2022/10/14 08:23:25;;;;;;;6.72;3.85;;;;;;;38.12;9.25;100695.78;4967664;28;20038;-79
2022/10/14 08:25:51;;;;;;;7.30;3.55;;;;;;;37.21;9.22;100662.38;4996897;28;20050;-79
2022/10/14 08:28:17;;;;;;;6.75;4.00;;;;;;;35.86;10.13;100682.72;5000394;28;20038;-80
2022/10/14 08:30:44;;;;;;;7.55;3.88;;;;;;;34.04;11.09;100682.50;5001255;28;20154;-80
2022/10/14 08:33:11;;;;;;;6.30;3.70;;;;;;;33.17;11.50;100695.84;4996616;28;20038;-79
2022/10/14 08:35:38;;;;;;;5.70;3.65;;;;;;;33.95;11.57;100681.53;4995054;28;20046;-80
2022/10/14 08:38:04;;;;;;;5.88;3.70;;;;;;;34.15;11.11;100671.53;4980891;28;20057;-80
2022/10/14 08:41:01;;;;;;;5.80;3.55;;;;;;;33.27;11.56;100682.38;4997152;28;20055;-81
2022/10/14 08:44:02;;;;;;;3.28;2.78;;;;;;;33.40;12.00;100687.50;4983825;28;20046;-79
2022/10/14 08:46:51;;;;;;;5.35;3.00;;;;;;;35.00;11.23;100678.72;4964301;28;20413;-79
2022/10/14 08:49:35;;;;;;;3.58;3.20;;;;;;;35.88;9.83;100613.03;4996618;28;20050;-80
2022/10/14 08:52:38;;;;;;;4.00;2.75;;;;;;;37.07;9.77;100669.28;4980118;28;20558;-82
2022/10/14 08:55:25;;;;;;;3.35;2.50;;;;;;;36.91;10.14;100657.38;4979175;28;20058;-82
2022/10/14 08:57:59;;;;;;;6.28;3.15;;;;;;;36.66;9.72;100636.63;4998488;28;20038;-82
2022/10/14 09:00:27;;;;;;;4.40;2.47;;;;;;;36.50;10.03;100668.09;4999405;28;20038;-78
2022/10/14 09:02:53;;;;;;;3.92;2.65;;;;;;;36.72;9.93;100652.25;4995716;28;20064;-79
2022/10/14 09:05:31;;;;;;;3.80;2.30;;;;;;;37.10;9.73;100668.09;4996488;28;20498;-81
2022/10/14 09:07:59;;;;;;;6.72;3.13;;;;;;;36.02;9.63;100652.25;5001063;28;20046;-80
2022/10/14 09:10:35;;;;;;;3.03;2.63;;;;;;;35.12;9.92;100653.16;4996065;28;20046;-80
2022/10/14 09:13:21;;;;;;;2.97;2.30;;;;;;;35.25;10.01;100627.59;4983313;28;20357;-79
2022/10/14 09:15:55;;;;;;;5.05;2.83;;;;;;;34.80;10.55;100651.78;4980812;28;20484;-80
2022/10/14 09:19:04;;;;;;;4.90;2.17;;;;;;;35.29;10.37;100662.28;5000306;28;20048;-80
2022/10/14 09:21:53;;;;;;;3.47;2.25;;;;;;;36.10;9.81;100634.31;4972295;28;20050;-80
2022/10/14 09:24:34;;;;;;;7.00;2.30;;;;;;;36.24;9.22;100573.31;5000315;28;20151;-79
2022/10/14 09:27:23;;;;;;;5.85;2.28;;;;;;;34.73;9.84;100610.16;5000033;28;20475;-80
2022/10/14 09:30:09;;;;;;;4.75;2.30;;;;;;;33.39;11.03;100658.84;5004046;28;20034;-80
2022/10/14 09:32:39;;;;;;;5.35;2.10;;;;;;;34.37;11.11;100653.25;5017068;28;20070;-81
2022/10/14 09:35:40;;;;;;;4.10;3.55;;;;;;;34.93;10.75;100637.06;5018293;28;20084;-80
2022/10/14 09:38:06;;;;;;;5.03;2.00;;;;;;;36.23;10.37;100617.63;4963173;28;20069;-79
2022/10/14 09:40:42;;;;;;;9.77;2.60;;;;;;;36.64;9.76;100636.78;5000288;28;20057;-78
2022/10/14 09:43:08;;;;;;;7.82;2.83;;;;;;;36.25;10.14;100635.44;5001557;28;20044;-81
2022/10/14 09:46:12;;;;;;;4.15;2.22;;;;;;;35.40;10.80;100649.53;5000012;28;20039;-79
2022/10/14 09:48:51;;;;;;;4.60;2.60;;;;;;;34.77;11.21;100635.88;4997532;28;20045;-81
2022/10/14 09:51:46;;;;;;;3.40;2.50;;;;;;;35.26;11.36;100632.00;5000005;28;20121;-80
2022/10/14 09:54:27;;;;;;;5.82;2.63;;;;;;;36.04;11.18;100625.00;4986971;28;20049;-81
2022/10/14 09:57:07;;;;;;;4.78;2.70;;;;;;;34.75;11.15;100645.13;4998901;28;20034;-79
2022/10/14 09:59:50;;;;;;;4.65;2.50;;;;;;;31.54;12.48;100650.66;4999076;28;20062;-78
2022/10/14 10:02:32;;;;;;;4.78;2.33;;;;;;;28.99;14.04;100645.38;4966486;28;20047;-79
2022/10/14 10:05:11;;;;;;;3.90;2.60;;;;;;;27.19;15.43;100652.31;4998019;28;20050;-81
2022/10/14 10:07:37;;;;;;;2.50;2.30;;;;;;;25.65;16.11;100655.47;4992375;28;20042;-79
2022/10/14 10:10:18;;;;;;;4.18;2.00;;;;;;;24.49;17.61;100665.41;4981116;28;20048;-80
2022/10/14 10:12:46;;;;;;;4.90;2.28;;;;;;;23.44;18.24;100655.66;4998608;28;20506;-81
2022/10/14 10:15:20;;;;;;;4.22;2.30;;;;;;;22.44;19.70;100674.44;4970335;28;20042;-83
2022/10/14 10:17:49;;;;;;;7.43;2.83;;;;;;;21.76;20.31;100670.22;5002606;28;20073;-77
2022/10/14 10:20:32;;;;;;;4.28;3.00;;;;;;;21.43;21.33;100673.31;4999328;28;20038;-80
2022/10/14 10:23:25;;;;;;;5.15;3.13;;;;;;;21.30;21.76;100681.72;4988393;28;20125;-81
2022/10/14 10:26:19;;;;;;;4.95;2.88;;;;;;;20.84;21.43;100668.53;4990747;28;20050;-80
2022/10/14 10:28:48;;;;;;;4.97;2.27;;;;;;;20.49;22.25;100691.81;4984495;28;20045;-79
2022/10/14 10:31:55;;;;;;;6.97;2.88;;;;;;;19.72;23.08;100697.94;5001688;28;20345;-80
2022/10/14 10:37:49;;;;;;;4.00;2.28;;;;;;;19.05;24.38;100693.88;5199572;23;20149;-80
2022/10/14 10:40:15;;;;;;;8.82;2.35;;;;;;;18.63;24.57;100693.28;4987752;28;20053;-80
2022/10/14 10:43:13;;;;;;;3.65;2.20;;;;;;;18.01;25.70;100699.31;4970952;28;20075;-79
2022/10/14 10:46:04;;;;;;;3.90;2.50;;;;;;;17.86;26.21;100695.28;4955570;28;20728;-80
2022/10/14 10:49:05;;;;;;;3.65;2.60;;;;;;;17.76;26.81;100700.75;4975421;28;20038;-79
2022/10/14 10:52:01;;;;;;;3.25;2.40;;;;;;;17.64;27.09;100697.56;4961207;28;20034;-79
2022/10/14 10:54:54;;;;;;;4.88;2.60;;;;;;;17.70;27.01;100693.03;4942068;28;20514;-79
2022/10/14 10:57:52;;;;;;;8.07;2.42;;;;;;;17.40;27.27;100692.00;4975515;28;20046;-80
2022/10/14 11:00:22;;;;;;;3.25;1.80;;;;;;;16.60;27.92;100670.88;4951791;28;20054;-80
2022/10/14 11:03:30;;;;;;;4.93;1.90;;;;;;;15.93;28.91;100677.34;4960543;28;20673;-81
2022/10/14 11:12:01;;;;;;;10.00;2.25;;;;;;;15.23;29.88;100628.59;4975739;28;20731;-82
2022/10/14 11:12:29;;;;;;;5.43;2.05;;;;;;;15.82;30.53;100694.13;4961566;28;20043;-80
2022/10/14 11:15:01;;;;;;;3.93;2.10;;;;;;;15.94;30.64;100687.81;4978995;28;20043;-78
2022/10/14 11:17:48;;;;;;;5.55;2.00;;;;;;;15.82;30.55;100690.59;5005057;28;20076;-80
2022/10/14 11:20:42;;;;;;;5.20;2.13;;;;;;;15.54;31.10;100687.56;4986026;28;20046;-81
2022/10/14 11:23:22;;;;;;;3.83;2.47;;;;;;;15.14;31.05;100702.09;4990227;28;20043;-80
2022/10/14 11:26:17;;;;;;;;;;;;;;;;;;;;;
2022/10/14 11:29:27;;;;;;;7.78;2.58;;;;;;;14.38;32.72;100697.72;4981944;28;20132;-80
2022/10/14 11:32:09;;;;;;;6.95;2.50;;;;;;;13.97;33.30;100666.72;4980419;28;21226;-81
2022/10/14 11:34:59;;;;;;;4.60;2.35;;;;;;;13.50;33.68;100606.09;4974199;28;20205;-77
2022/10/14 11:37:56;;;;;;;2.45;2.05;;;;;;;13.91;34.04;100697.31;4985356;28;20234;-80
2022/10/14 11:40:58;;;;;;;4.15;2.10;;;;;;;13.86;34.30;100695.59;4936285;28;20158;-78
2022/10/14 11:43:44;;;;;;;5.97;2.00;;;;;;;13.79;34.39;100700.88;4973181;28;20054;-79
2022/10/14 11:46:15;;;;;;;2.83;1.92;;;;;;;13.80;34.95;100698.25;4979876;28;20114;-81
2022/10/14 11:49:21;;;;;;;2.78;2.05;;;;;;;13.91;35.03;100679.84;4981979;28;20509;-81
2022/10/14 11:52:06;;;;;;;;;;;;;;;;;;;;;
2022/10/14 11:55:23;;;;;;;5.10;2.15;;;;;;;13.27;35.15;100543.50;4981570;28;20130;-80
2022/10/14 11:58:09;;;;;;;6.55;2.25;;;;;;;13.79;34.86;100665.13;4909665;29;20062;-82
2022/10/14 12:00:45;;;;;;;4.15;2.30;;;;;;;13.50;35.29;100626.13;4947151;28;20197;-82
2022/10/14 12:03:20;;;;;;;5.93;2.30;;;;;;;13.83;35.42;100679.06;4965710;28;20102;-81
2022/10/14 12:06:25;;;;;;;6.05;2.67;;;;;;;14.06;35.56;100685.84;4967179;28;20108;-81
2022/10/14 12:08:54;;;;;;;4.70;2.65;;;;;;;13.84;35.67;100610.16;4970340;28;20014;-82
2022/10/14 12:11:33;;;;;;;4.45;2.50;;;;;;;14.42;35.47;100692.47;4975653;28;20122;-82
2022/10/14 12:14:41;;;;;;;5.35;2.25;;;;;;;14.49;35.41;100680.16;4960197;28;20406;-81
2022/10/14 12:17:58;;;;;;;5.97;2.42;;;;;;;13.81;35.45;100571.81;4950512;28;20046;-80
2022/10/14 12:20:39;;;;;;;8.07;2.65;;;;;;;14.38;34.69;100679.41;4988275;28;20042;-80
2022/10/14 12:23:10;;;;;;;5.55;2.25;;;;;;;13.79;35.50;100646.81;4977303;28;20097;-81
2022/10/14 12:26:05;;;;;;;5.38;2.30;;;;;;;13.44;36.21;100668.88;4978520;28;20417;-81